Flight Track Log - Related Links

Times and Time Zones

All times are in EDT time to prevent confusion due to time zone crossing. See the DAL1005 flight status page for this flight to view local times or setup timezone preferences in your user account.


Time Position Orientation Groundspeed Altitude Reporting Facility
EDT Latitude Longitude Course Direction KTS MPH feet Rate Location/Type
Fri 04:13:45 PM 42.1964 -83.3556 187° South 153 176 2,000  Level FAA TRACON SMA TRACON (SMA)
Fri 04:14:05 PM 42.1792 -83.3586 187° South 180 207 2,600 1,800 Climbing FAA TRACON SMA TRACON (SMA)
Fri 04:14:25 PM 42.1636 -83.3617 188° South 201 231 3,200 2,100 Climbing FAA TRACON SMA TRACON (SMA)
Fri 04:14:45 PM 42.1408 -83.3658 188° South 231 266 4,000 2,400 Climbing FAA TRACON SMA TRACON (SMA)
Fri 04:15:05 PM 42.1217 -83.3697 189° South 245 282 4,800 3,300 Climbing FAA TRACON SMA TRACON (SMA)
Fri 04:15:25 PM 42.0950 -83.3739 187° South 254 292 6,200 3,450 Climbing FAA TRACON SMA TRACON (SMA)
Fri 04:15:45 PM 42.0753 -83.3736 179° South 265 305 7,100 3,750 Climbing FAA TRACON SMA TRACON (SMA)
Fri 04:16:05 PM 42.0469 -83.3708 176° South 261 300 8,700 3,750 Climbing FAA TRACON SMA TRACON (SMA)
Fri 04:16:25 PM 42.0244 -83.3692 177° South 261 300 9,600 1,950 Climbing FAA TRACON SMA TRACON (SMA)
Fri 04:16:45 PM 42.0019 -83.3675 177° South 262 302 10,000 750 Climbing FAA TRACON SMA TRACON (SMA)
Fri 04:17:05 PM 41.9731 -83.3650 176° South 267 307 10,100 750 Climbing FAA TRACON SMA TRACON (SMA)
Fri 04:17:25 PM 41.9492 -83.3633 177° South 272 313 10,500 1,350 Climbing FAA TRACON SMA TRACON (SMA)
Fri 04:17:45 PM 41.9236 -83.3614 177° South 298 343 11,000 1,463 Climbing FAA TRACON SMA TRACON (SMA)
Fri 04:18:06 PM 41.8883 -83.3586 177° South 334 384 11,500 1,756 Climbing FAA TRACON SMA TRACON (SMA)
Fri 04:18:26 PM 41.8586 -83.3569 178° South 346 398 12,200 2,550 Climbing FAA TRACON SMA TRACON (SMA)
Fri 04:18:46 PM 41.8286 -83.3539 176° South 348 400 13,200 3,385 Climbing FAA TRACON SMA TRACON (SMA)
Fri 04:19:05 PM 41.7914 -83.3506 176° South 349 402 14,400 3,385 Climbing FAA TRACON SMA TRACON (SMA)
Fri 04:19:25 PM 41.7617 -83.3483 177° South 348 400 15,400 2,550 Climbing FAA TRACON SMA TRACON (SMA)
Fri 04:19:45 PM 41.7317 -83.3461 177° South 349 402 16,100 2,550 Climbing FAA TRACON SMA TRACON (SMA)
Fri 04:20:05 PM 41.6936 -83.3428 176° South 354 407 17,100 2,550 Climbing FAA TRACON SMA TRACON (SMA)
Fri 04:20:25 PM 41.6625 -83.3406 177° South 359 413 17,800 2,550 Climbing FAA TRACON SMA TRACON (SMA)
Fri 04:20:45 PM 41.6311 -83.3389 178° South 363 418 18,800 2,700 Climbing FAA TRACON SMA TRACON (SMA)
Fri 04:21:05 PM 41.5919 -83.3375 178° South 364 419 19,600 2,400 Climbing FAA TRACON SMA TRACON (SMA)
Fri 04:21:25 PM 41.5617 -83.3486 195° South 362 417 20,400 3,300 Climbing FAA TRACON SMA TRACON (SMA)
Fri 04:21:45 PM 41.5342 -83.3639 203° Southwest 348 400 21,800 4,650 Climbing FAA TRACON SMA TRACON (SMA)
Fri 04:22:05 PM 41.5011 -83.3808 201° Southwest 324 373 23,500 3,450 Climbing FAA TRACON SMA TRACON (SMA)
Fri 04:22:25 PM 41.4886 -83.3869 200° South 315 362 24,100 600 Climbing FAA TRACON SMA TRACON (SMA)
Fri 04:23:05 PM 41.4886 -83.3869 288° West 315 362 24,100 1,239 Level FAA TRACON SMA TRACON (SMA)
Fri 04:23:57 PM 41.3419 -83.4678 202° Southwest 333 383 26,000 1,339 Climbing Cleveland Center
Fri 04:24:57 PM 41.2425 -83.5242 203° Southwest 350 403 26,600 800 Climbing Cleveland Center
Fri 04:25:57 PM 41.1389 -83.5831 203° Southwest 388 447 27,600 1,508 Climbing Cleveland Center
Fri 04:28:08 PM 40.9211 -83.6981 202° Southwest 392 451 31,400 1,461 Climbing Indianapolis Center
Fri 04:29:10 PM 40.8197 -83.7547 203° Southwest 393 452 32,300 919 Climbing Indianapolis Center
Fri 04:30:12 PM 40.7153 -83.8111 202° Southwest 400 460 33,300 968 Climbing Indianapolis Center
Fri 04:31:14 PM 40.6103 -83.8681 202° Southwest 405 466 34,300 871 Climbing Indianapolis Center
Fri 04:32:16 PM 40.4875 -83.9333 202° Southwest 407 468 35,100 823 Climbing Indianapolis Center
Fri 04:33:18 PM 40.3814 -83.9922 203° Southwest 412 474 36,000 871 Climbing Indianapolis Center
Fri 04:34:20 PM 40.2731 -84.0422 199° South 412 474 36,900 484 Climbing Indianapolis Center
Fri 04:35:22 PM 40.1600 -84.0642 188° South 410 472 37,000 48 Climbing Indianapolis Center
Fri 04:36:24 PM 40.0450 -84.0825 187° South 412 474 37,000  Level Indianapolis Center
Fri 04:37:26 PM 39.9303 -84.1017 187° South 415 478 37,000  Level Indianapolis Center
Fri 04:38:29 PM 39.7969 -84.1244 187° South 413 475 37,000  Level Indianapolis Center
Fri 04:39:31 PM 39.6822 -84.1425 187° South 414 476 37,000  Level Indianapolis Center
Fri 04:40:33 PM 39.5689 -84.1617 187° South 410 472 37,000  Level Indianapolis Center
Fri 04:41:35 PM 39.4528 -84.1286 168° South 437 503 37,000  Level Indianapolis Center
Fri 04:42:37 PM 39.3397 -84.0506 152° Southeast 456 525 37,000  Level Indianapolis Center
Fri 04:43:39 PM 39.2250 -83.9725 152° Southeast 463 533 37,000  Level Indianapolis Center
Fri 04:44:41 PM 39.0931 -83.8811 152° Southeast 460 529 37,000  Level Indianapolis Center
Fri 04:45:43 PM 38.9769 -83.8003 152° Southeast 467 537 37,000  Level Indianapolis Center
Fri 04:46:45 PM 38.8608 -83.7228 153° Southeast 467 537 37,000  Level Indianapolis Center
Fri 04:47:47 PM 38.7489 -83.6461 152° Southeast 454 522 37,000 -48 Level Indianapolis Center
Fri 04:48:49 PM 38.6258 -83.5617 152° Southeast 449 517 36,900 -484 Descending Indianapolis Center
Fri 04:49:51 PM 38.5167 -83.4897 153° Southeast 441 507 36,000 -919 Descending Indianapolis Center
Fri 04:50:53 PM 38.4083 -83.4150 152° Southeast 439 505 35,000 -968 Descending Indianapolis Center
Fri 04:51:55 PM 38.2992 -83.3419 152° Southeast 442 509 34,000 -919 Descending Indianapolis Center
Fri 04:52:57 PM 38.1889 -83.2689 152° Southeast 445 512 33,100 -484 Descending Indianapolis Center
Fri 04:53:59 PM 38.0789 -83.1942 152° Southeast 446 513 33,000 -48 Descending Indianapolis Center
Fri 04:55:01 PM 37.9481 -83.1094 153° Southeast 450 518 33,000  Level Indianapolis Center
Fri 04:56:03 PM 37.8339 -83.0414 155° Southeast 453 521 33,000  Level Indianapolis Center
Fri 04:57:05 PM 37.7175 -82.9983 164° South 438 504 33,000 -484 Level Indianapolis Center
Fri 04:58:07 PM 37.6000 -82.9542 163° South 438 504 32,000 -968 Descending Indianapolis Center
Fri 04:59:09 PM 37.4883 -82.8861 154° Southeast 448 516 31,000 -1,065 Descending Indianapolis Center
Fri 05:00:11 PM 37.3575 -82.7900 150° Southeast 463 533 29,800 -968 Descending Indianapolis Center
Fri 05:01:13 PM 37.2428 -82.7078 150° Southeast 469 540 29,000 -387 Descending Indianapolis Center
Fri 05:02:15 PM 37.1286 -82.6236 150° Southeast 471 542 29,000 -435 Level Indianapolis Center
Fri 05:03:17 PM 37.0197 -82.5447 150° Southeast 451 519 28,100 -919 Descending Indianapolis Center
Fri 05:04:19 PM 36.9081 -82.4658 151° Southeast 454 522 27,100 -966 Descending Indianapolis Center
Fri 05:05:15 PM 36.7981 -82.3900 151° Southeast 456 525 26,200 -939 Descending Atlanta Center
Fri 05:06:14 PM 36.6947 -82.3197 151° Southeast 469 540 25,300 -950 Descending Atlanta Center
Fri 05:07:15 PM 36.5747 -82.2369 151° Southeast 475 547 24,300 -645 Descending Atlanta Center
Fri 05:08:15 PM 36.4567 -82.1569 151° Southeast 486 559 24,000 -150 Descending Atlanta Center
Fri 05:09:15 PM 36.3408 -82.0797 152° Southeast 474 545 24,000 -100 Level Atlanta Center
Fri 05:10:15 PM 36.2228 -81.9978 151° Southeast 479 551 23,800 -900 Descending Atlanta Center
Fri 05:11:15 PM 36.0961 -81.9083 150° Southeast 479 551 22,200 -2,450 Descending Atlanta Center
Fri 05:12:15 PM 35.9822 -81.8369 153° Southeast 472 543 18,900 -3,378 Descending Atlanta Center
Fri 05:13:14 PM 35.8808 -81.7681 151° Southeast 437 503 15,500 -3,950 Descending Atlanta Center
Fri 05:14:15 PM 35.7731 -81.6969 152° Southeast 439 505 11,000 -1,686 Descending Atlanta Center
Fri 05:15:15 PM 35.6822 -81.6381 152° Southeast 391 450 12,100 50 Climbing Atlanta Center
Fri 05:16:15 PM 35.6061 -81.5842 150° Southeast 341 392 11,100 -465 Descending Atlanta Center
Fri 05:17:24 PM 35.5436 -81.4917 130° Southeast 314 361 11,100  Level Atlanta Center
Fri 05:18:15 PM 35.5231 -81.3978 105° East 304 350 11,100 -216 Level Atlanta Center
Fri 05:19:15 PM 35.5019 -81.2914 104° East 315 362 10,700 -947 Descending Atlanta Center
Fri 05:19:31 PM 35.4992 -81.2608 96° East 323 372 9,900 -2,500 Descending Atlanta Center
Fri 05:20:15 PM 35.4828 -81.1847 105° East 315 362 8,200 -2,365 Descending Atlanta Center
Fri 05:21:15 PM 35.4533 -81.0889 111° Southeast 308 354 5,800 -2,100 Descending Atlanta Center
Fri 05:22:15 PM 35.4117 -81.0114 123° Southeast 289 333 4,000 -1,624 Descending Atlanta Center
Fri 05:22:40 PM 35.3883 -80.9869 139° Southeast 240 276 3,500 -730 Descending Atlanta Center
Fri 05:23:29 PM 35.3503 -80.9678 158° South 182 209 3,100 -606 Descending Atlanta Center
Fri 05:24:29 PM 35.3083 -80.9617 173° South 141 162 2,400 -793 Descending Atlanta Center
Fri 05:25:30 PM 35.2622 -80.9583 177° South 147 169 1,500 -885 Descending Atlanta Center
Fri 05:27:00 PM 35.2137 -80.9491 180° South  Level Estimated

Login

Don't have an account? Register now (free) for customized features, flight alerts, and more!